Terminal Aerodrome Forecast
Issued by NWS

Home | Current Version | Previous Version | Text Only | Print | Product List | Glossary On
Versions: 1 2 3 4 5 6 7 8 9 10 11 12 13 14 15 16 17 18 19 20 21 22 23 24 25 26
000
FTUS43 KAPX 041901 AAA
TAFPLN
TAF AMD
KPLN 041901Z 0419/0518 32008G16KT P6SM VCSH SCT050 SCT100
     FM050100 31006KT P6SM SKC
     FM050900 31006KT P6SM SCT050
     FM051500 32008KT P6SM FEW050=

USA.gov is the U.S. government's official web portal to all federal, state and local government web resources and services.